createdAt,value
2019-04-23T00:03:45.769Z,101200.45
2019-04-23T00:06:40.637Z,101200.06
2019-04-23T00:08:59.234Z,101191.66
2019-04-23T00:11:21.312Z,101197.84
2019-04-23T00:13:48.413Z,101196.06
2019-04-23T00:16:24.862Z,101192.90
2019-04-23T00:19:02.435Z,101192.47
2019-04-23T00:21:40.507Z,101195.19
2019-04-23T00:24:38.424Z,101192.84
2019-04-23T00:27:11.069Z,101195.23
2019-04-23T00:29:27.971Z,101186.45
2019-04-23T00:32:05.075Z,101189.66
2019-04-23T00:34:37.064Z,101184.80
2019-04-23T00:37:11.269Z,101186.67
2019-04-23T00:39:34.324Z,101167.31
2019-04-23T00:42:06.667Z,101190.88
2019-04-23T00:44:40.116Z,101186.03
2019-04-23T00:47:06.759Z,101188.13
2019-04-23T00:49:40.306Z,101182.31
2019-04-23T00:52:14.606Z,101175.27
2019-04-23T00:54:39.226Z,101178.52
2019-04-23T00:59:48.307Z,101178.92
2019-04-23T01:02:10.912Z,101177.52
2019-04-23T01:04:40.412Z,101175.50
2019-04-23T01:07:13.189Z,101178.04
2019-04-23T01:09:52.525Z,101177.67
2019-04-23T01:12:23.721Z,101183.34
2019-04-23T01:14:48.240Z,101175.94
2019-04-23T01:17:30.542Z,101176.53
2019-04-23T01:20:01.933Z,101170.45
2019-04-23T01:22:12.995Z,101171.58
2019-04-23T01:24:50.858Z,101173.14
2019-04-23T01:27:51.371Z,101159.98
2019-04-23T01:30:13.873Z,101168.05
2019-04-23T01:32:48.286Z,101162.56
2019-04-23T01:35:20.383Z,101169.01
2019-04-23T01:37:49.306Z,101157.62
2019-04-23T01:40:27.416Z,101163.73
2019-04-23T01:42:50.855Z,101159.61
2019-04-23T01:45:31.580Z,101151.95
2019-04-23T01:47:55.189Z,101157.30
2019-04-23T01:50:31.171Z,101159.95
2019-04-23T01:53:00.810Z,101152.91
2019-04-23T01:55:26.040Z,101152.64
2019-04-23T01:58:07.077Z,101144.50
2019-04-23T02:00:32.586Z,101153.38
2019-04-23T02:05:38.547Z,101146.56
2019-04-23T02:08:06.535Z,101149.45
2019-04-23T02:10:51.272Z,101144.31
2019-04-23T02:15:36.332Z,101141.95
2019-04-23T02:18:10.400Z,101142.06
2019-04-23T02:20:46.117Z,101136.20
2019-04-23T02:23:21.338Z,101137.08
2019-04-23T02:28:34.001Z,101131.17
2019-04-23T02:33:34.522Z,101125.82
2019-04-23T02:38:31.264Z,101126.85
2019-04-23T02:41:03.843Z,101120.36
2019-04-23T02:46:02.294Z,101123.91
2019-04-23T02:50:57.802Z,101113.92
2019-04-23T02:58:36.101Z,101111.11
2019-04-23T03:01:19.493Z,101106.02
2019-04-23T03:03:57.127Z,101094.19
2019-04-23T03:06:16.670Z,101100.72
2019-04-23T03:11:16.905Z,101095.56
2019-04-23T03:19:18.807Z,101090.47
2019-04-23T03:22:03.408Z,101100.63
2019-04-23T03:24:43.719Z,101089.52
2019-04-23T03:29:52.288Z,101089.39
2019-04-23T03:32:45.922Z,101089.04
2019-04-23T03:37:30.915Z,101086.18
2019-04-23T03:45:03.182Z,101085.83
2019-04-23T03:50:04.545Z,101089.72
2019-04-23T03:52:34.232Z,101082.83
2019-04-23T03:54:45.536Z,101087.98
2019-04-23T04:00:13.150Z,101085.23
2019-04-23T04:04:49.767Z,101085.72
2019-04-23T04:10:05.294Z,101082.12
2019-04-23T04:12:28.662Z,101080.42
2019-04-23T04:17:32.663Z,101083.09
2019-04-23T04:20:07.488Z,101077.41
2019-04-23T04:22:39.919Z,101078.16
2019-04-23T04:30:21.196Z,101072.85
2019-04-23T04:32:56.603Z,101075.14
2019-04-23T04:37:55.988Z,101070.05
2019-04-23T04:40:29.368Z,101070.80
2019-04-23T04:47:49.283Z,101066.98
2019-04-23T04:50:18.799Z,101067.95
2019-04-23T04:53:00.962Z,101069.09
2019-04-23T04:55:32.176Z,101068.98
2019-04-23T04:57:58.551Z,101067.47
2019-04-23T05:00:34.898Z,101069.45
2019-04-23T05:05:55.352Z,101067.54
2019-04-23T05:08:13.851Z,101060.53
2019-04-23T05:13:22.235Z,101063.06
2019-04-23T05:15:36.964Z,101056.73
2019-04-23T05:18:39.950Z,101054.08
2019-04-23T05:20:58.858Z,101050.48
2019-04-23T05:23:52.439Z,101048.99
2019-04-23T05:28:55.883Z,101031.28
2019-04-23T05:31:18.678Z,101045.11
2019-04-23T05:33:47.662Z,101038.52
2019-04-23T05:36:33.891Z,101038.11
2019-04-23T05:39:07.621Z,101038.47
2019-04-23T05:41:23.486Z,101027.36
2019-04-23T05:43:57.266Z,101047.48
2019-04-23T05:46:27.783Z,101032.50
2019-04-23T05:49:09.410Z,101025.93
2019-04-23T05:54:12.830Z,101018.80
2019-04-23T06:04:27.117Z,101028.83
2019-04-23T06:09:13.961Z,101038.15
2019-04-23T06:24:22.164Z,101027.23
2019-04-23T06:29:25.617Z,101024.67
2019-04-23T06:31:50.783Z,101020.13
2019-04-23T06:34:27.222Z,101010.02
2019-04-23T06:36:51.156Z,100999.17
2019-04-23T06:39:26.437Z,100996.78
2019-04-23T06:44:31.892Z,100992.28
2019-04-23T06:47:05.729Z,100986.86
2019-04-23T06:49:30.466Z,100992.57
2019-04-23T06:52:10.321Z,100983.07
2019-04-23T06:54:36.118Z,100991.92
2019-04-23T06:57:10.560Z,100983.66
2019-04-23T06:59:30.674Z,100974.87
2019-04-23T07:02:06.684Z,100976.88
2019-04-23T07:04:34.540Z,100968.63
2019-04-23T07:07:34.777Z,100980.83
2019-04-23T07:09:26.024Z,100967.62
2019-04-23T07:12:05.329Z,100956.86
2019-04-23T07:14:47.672Z,100967.45
2019-04-23T07:17:02.664Z,100963.05
2019-04-23T07:19:39.363Z,100965.27
2019-04-23T07:22:12.983Z,100964.72
2019-04-23T07:25:03.107Z,100958.69
2019-04-23T07:27:24.602Z,100957.98
2019-04-23T07:30:03.647Z,100956.63
2019-04-23T07:32:30.650Z,100955.34
2019-04-23T07:37:32.002Z,100959.94
2019-04-23T07:40:24.513Z,100944.59
2019-04-23T07:42:54.175Z,100950.62
2019-04-23T07:45:37.859Z,100942.42
2019-04-23T07:50:46.227Z,100935.88
2019-04-23T07:53:17.175Z,100943.13
2019-04-23T08:08:12.176Z,100928.28
2019-04-23T08:11:30.931Z,100917.54
2019-04-23T08:13:59.063Z,100910.80
2019-04-23T08:21:27.575Z,100907.89
2019-04-23T08:26:52.044Z,100903.53
2019-04-23T08:29:24.982Z,100903.39
2019-04-23T08:32:00.633Z,100883.04
2019-04-23T08:34:38.923Z,100902.40
2019-04-23T08:37:05.153Z,100885.82
2019-04-23T08:39:32.387Z,100882.03
2019-04-23T08:42:13.963Z,100878.16
2019-04-23T08:44:56.919Z,100868.84
2019-04-23T08:47:26.242Z,100877.52
2019-04-23T08:49:50.591Z,100865.48
2019-04-23T08:52:24.784Z,100860.75
2019-04-23T08:55:10.171Z,100867.36
2019-04-23T08:59:58.770Z,100851.66
2019-04-23T09:05:00.787Z,100846.25
2019-04-23T09:07:28.050Z,100842.45
2019-04-23T09:10:09.701Z,100842.97
2019-04-23T09:13:00.867Z,100840.06
2019-04-23T09:15:01.863Z,100842.14
2019-04-23T09:17:34.309Z,100838.47
2019-04-23T09:22:34.792Z,100825.20
2019-04-23T09:25:06.581Z,100831.73
2019-04-23T09:27:33.303Z,100823.74
2019-04-23T09:30:09.464Z,100819.55
2019-04-23T09:32:40.209Z,100810.61
2019-04-23T09:35:30.801Z,100807.82
2019-04-23T09:38:28.186Z,100798.03
2019-04-23T09:44:21.620Z,100794.98
2019-04-23T09:46:44.063Z,100794.77
2019-04-23T09:49:15.013Z,100790.70
2019-04-23T09:51:56.235Z,100788.56
2019-04-23T10:01:49.851Z,100778.97
2019-04-23T10:04:19.419Z,100778.38
2019-04-23T10:06:38.981Z,100781.11
2019-04-23T10:09:10.681Z,100766.97
2019-04-23T10:11:40.599Z,100761.66
2019-04-23T10:14:10.579Z,100757.89
2019-04-23T10:16:41.153Z,100755.77
2019-04-23T10:19:12.149Z,100748.86
2019-04-23T10:21:41.867Z,100750.14
2019-04-23T10:24:10.820Z,100751.61
2019-04-23T10:26:39.988Z,100746.75
2019-04-23T10:29:13.866Z,100739.89
2019-04-23T10:31:43.871Z,100736.78
2019-04-23T10:34:12.847Z,100724.63
2019-04-23T10:36:42.332Z,100718.52
2019-04-23T10:39:19.565Z,100727.20
2019-04-23T10:41:46.249Z,100706.34
2019-04-23T10:44:29.130Z,100704.38
2019-04-23T10:47:44.783Z,100706.20
2019-04-23T10:55:58.887Z,100673.86
2019-04-23T10:58:26.690Z,100681.83
2019-04-23T11:00:59.817Z,100686.19
2019-04-23T11:03:42.465Z,100674.23
2019-04-23T11:05:59.054Z,100680.06
2019-04-23T11:08:30.945Z,100679.36
2019-04-23T11:11:03.572Z,100674.14
2019-04-23T11:18:45.284Z,100653.69
2019-04-23T11:23:35.932Z,100662.25
2019-04-23T11:31:23.718Z,100655.66
2019-04-23T11:33:46.489Z,100659.88
2019-04-23T11:36:43.726Z,100655.33
2019-04-23T11:41:35.082Z,100649.92
2019-04-23T11:43:53.384Z,100644.62
2019-04-23T11:46:39.894Z,100661.91
2019-04-23T11:49:20.633Z,100640.09
2019-04-23T11:54:07.279Z,100628.48
2019-04-23T11:58:55.107Z,100626.45
2019-04-23T12:04:48.226Z,100622.48
2019-04-23T12:09:51.696Z,100621.03
2019-04-23T12:12:18.473Z,100617.42
2019-04-23T12:14:51.065Z,100624.14
2019-04-23T12:20:06.048Z,100618.64
2019-04-23T12:27:31.189Z,100615.91
2019-04-23T12:30:18.969Z,100604.34
2019-04-23T12:37:44.785Z,100590.42
2019-04-23T12:40:30.909Z,100600.41
2019-04-23T12:52:55.606Z,100565.97
2019-04-23T12:55:41.931Z,100565.08
2019-04-23T12:57:50.694Z,100568.55
2019-04-23T13:00:35.860Z,100562.37
2019-04-23T13:02:56.859Z,100551.30
2019-04-23T13:05:31.294Z,100542.50
2019-04-23T13:08:02.095Z,100542.31
2019-04-23T13:10:33.771Z,100554.16
2019-04-23T13:15:36.959Z,100538.81
2019-04-23T13:18:26.971Z,100524.40
2019-04-23T13:20:39.970Z,100518.98
2019-04-23T13:23:16.496Z,100516.80
2019-04-23T13:25:56.148Z,100492.44
2019-04-23T13:28:29.559Z,100511.86
2019-04-23T13:31:08.397Z,100515.44
2019-04-23T13:36:08.360Z,100507.30
2019-04-23T13:41:11.639Z,100495.33
2019-04-23T13:46:17.933Z,100486.94
2019-04-23T13:48:30.150Z,100484.55
2019-04-23T13:51:18.605Z,100481.49
2019-04-23T13:53:49.720Z,100477.50
2019-04-23T13:56:09.184Z,100464.80
2019-04-23T13:58:43.341Z,100470.41
2019-04-23T14:03:45.452Z,100459.16
2019-04-23T14:06:29.424Z,100450.05
2019-04-23T14:11:19.740Z,100438.89
2019-04-23T14:18:56.187Z,100443.09
2019-04-23T14:24:03.466Z,100426.08
2019-04-23T14:28:55.503Z,100427.64
2019-04-23T14:31:31.798Z,100427.34
2019-04-23T14:34:04.978Z,100423.23
2019-04-23T14:36:39.632Z,100415.16
2019-04-23T14:39:06.541Z,100427.70
2019-04-23T14:41:37.740Z,100412.77
2019-04-23T14:44:36.671Z,100410.94
2019-04-23T14:47:11.978Z,100405.58
2019-04-23T14:49:45.602Z,100406.56
2019-04-23T14:52:12.181Z,100404.85
2019-04-23T14:59:45.175Z,100391.20
2019-04-23T15:02:19.542Z,100415.48
2019-04-23T15:04:51.152Z,100381.11
2019-04-23T15:07:23.014Z,100377.06
2019-04-23T15:10:07.000Z,100381.30
2019-04-23T15:12:42.974Z,100371.58
2019-04-23T15:15:00.302Z,100370.62
2019-04-23T15:20:17.200Z,100368.45
2019-04-23T15:25:26.238Z,100380.93
2019-04-23T15:29:51.141Z,100373.81
2019-04-23T15:32:43.924Z,100369.64
2019-04-23T15:35:18.136Z,100364.00
2019-04-23T15:40:21.276Z,100371.86
2019-04-23T15:42:44.407Z,100361.06
2019-04-23T15:45:11.293Z,100350.25
2019-04-23T15:47:54.030Z,100362.13
2019-04-23T15:50:17.567Z,100357.32
2019-04-23T15:53:01.386Z,100354.31
2019-04-23T15:55:49.380Z,100353.57
2019-04-23T15:58:14.537Z,100353.25
2019-04-23T16:00:51.380Z,100360.94
2019-04-23T16:02:53.232Z,100352.23
2019-04-23T16:05:23.283Z,100359.69
2019-04-23T16:08:30.966Z,100368.57
2019-04-23T16:11:15.648Z,100360.00
2019-04-23T16:13:42.509Z,100354.98
2019-04-23T16:16:07.697Z,100356.67
2019-04-23T16:21:27.425Z,100371.27
2019-04-23T16:23:53.812Z,100362.73
2019-04-23T16:26:45.022Z,100367.23
2019-04-23T16:29:25.464Z,100363.56
2019-04-23T16:31:39.921Z,100368.58
2019-04-23T16:34:20.597Z,100352.51
2019-04-23T16:39:10.709Z,100372.62
2019-04-23T16:41:51.866Z,100371.94
2019-04-23T16:47:10.541Z,100367.41
2019-04-23T16:50:03.157Z,100369.27
2019-04-23T16:52:09.589Z,100366.56
2019-04-23T16:54:42.236Z,100356.51
2019-04-23T16:57:33.237Z,100366.25
2019-04-23T16:59:49.465Z,100351.31
2019-04-23T17:02:18.411Z,100352.84
2019-04-23T17:08:00.207Z,100355.17
2019-04-23T17:10:19.155Z,100356.30
2019-04-23T17:13:32.995Z,100362.16
2019-04-23T17:16:06.792Z,100357.79
2019-04-23T17:18:31.890Z,100341.71
2019-04-23T17:21:07.425Z,100356.92
2019-04-23T17:23:40.162Z,100354.09
2019-04-23T17:28:41.080Z,100352.73
2019-04-23T17:31:28.103Z,100360.07
2019-04-23T17:33:41.724Z,100327.05
2019-04-23T17:36:32.063Z,100363.05
2019-04-23T17:39:28.720Z,100348.50
2019-04-23T17:42:19.605Z,100358.37
2019-04-23T17:44:51.499Z,100359.00
2019-04-23T17:47:37.546Z,100366.37
2019-04-23T17:50:28.809Z,100356.97
2019-04-23T17:52:51.183Z,100360.48
2019-04-23T17:55:16.272Z,100355.80
2019-04-23T17:58:03.468Z,100358.94
2019-04-23T18:02:59.925Z,100357.23
2019-04-23T18:05:40.694Z,100354.89
2019-04-23T18:07:59.403Z,100358.31
2019-04-23T18:10:38.670Z,100377.47
2019-04-23T18:13:05.224Z,100352.73
2019-04-23T18:15:41.890Z,100365.27
2019-04-23T18:18:10.061Z,100360.70
2019-04-23T18:21:03.286Z,100356.34
2019-04-23T18:24:27.337Z,100359.98
2019-04-23T18:30:09.969Z,100368.34
2019-04-23T18:38:18.615Z,100371.12
2019-04-23T18:41:01.366Z,100379.93
2019-04-23T18:43:29.547Z,100377.56
2019-04-23T18:51:03.410Z,100374.45
2019-04-23T18:58:54.604Z,100389.46
2019-04-23T19:01:19.826Z,100382.34
2019-04-23T19:06:41.318Z,100386.72
2019-04-23T19:10:10.803Z,100381.98
2019-04-23T19:12:39.462Z,100385.31
2019-04-23T19:15:09.435Z,100388.34
2019-04-23T19:20:37.661Z,100386.84
2019-04-23T19:22:58.766Z,100388.67
2019-04-23T19:28:07.569Z,100387.00
2019-04-23T19:30:41.716Z,100382.55
2019-04-23T19:33:25.346Z,100389.72
2019-04-23T19:40:52.011Z,100387.15
2019-04-23T19:43:21.030Z,100396.20
2019-04-23T19:45:56.682Z,100390.13
2019-04-23T19:56:03.717Z,100395.56
2019-04-23T19:58:48.129Z,100398.50
2019-04-23T20:03:41.423Z,100389.36
2019-04-23T20:06:00.529Z,100386.54
2019-04-23T20:08:49.444Z,100387.23
2019-04-23T20:11:01.298Z,100393.59
2019-04-23T20:13:38.947Z,100374.09
2019-04-23T20:18:46.412Z,100375.61
2019-04-23T20:21:12.832Z,100376.95
2019-04-23T20:24:03.911Z,100371.42
2019-04-23T20:26:23.408Z,100376.83
2019-04-23T20:29:15.510Z,100382.08
2019-04-23T20:33:00.578Z,100383.28
2019-04-23T20:36:57.960Z,100377.91
2019-04-23T20:44:47.486Z,100384.66
2019-04-23T20:47:10.228Z,100376.58
2019-04-23T20:52:34.057Z,100375.06
2019-04-23T20:55:05.174Z,100370.77
2019-04-23T21:00:16.958Z,100366.00
2019-04-23T21:05:58.528Z,100361.12
2019-04-23T21:08:33.211Z,100355.72
2019-04-23T21:10:58.252Z,100349.70
2019-04-23T21:16:01.197Z,100352.91
2019-04-23T21:20:56.267Z,100352.07
2019-04-23T21:23:38.741Z,100354.78
2019-04-23T21:25:58.128Z,100360.89
2019-04-23T21:31:16.088Z,100356.63
2019-04-23T21:34:34.134Z,100352.82
2019-04-23T21:37:35.665Z,100349.31
2019-04-23T21:40:40.299Z,100353.93
2019-04-23T21:43:01.450Z,100351.80
2019-04-23T21:45:35.347Z,100349.84
2019-04-23T21:50:37.392Z,100346.26
2019-04-23T21:52:54.432Z,100346.95
2019-04-23T21:55:39.067Z,100345.36
2019-04-23T21:58:07.166Z,100338.98
2019-04-23T22:00:53.520Z,100343.64
2019-04-23T22:03:43.538Z,100342.52
2019-04-23T22:06:01.808Z,100342.37
2019-04-23T22:08:27.063Z,100344.77
2019-04-23T22:11:24.557Z,100344.77
2019-04-23T22:13:41.644Z,100327.36
2019-04-23T22:16:05.915Z,100327.36
2019-04-23T22:18:34.371Z,100337.33
2019-04-23T22:21:15.654Z,100318.83
2019-04-23T22:23:50.647Z,100325.82
2019-04-23T22:29:14.373Z,100321.83
2019-04-23T22:32:02.507Z,100322.81
2019-04-23T22:37:03.548Z,100329.06
2019-04-23T22:39:32.150Z,100332.19
2019-04-23T22:44:39.935Z,100328.58
2019-04-23T22:47:04.313Z,100326.86
2019-04-23T22:49:41.766Z,100312.77
2019-04-23T22:52:16.070Z,100312.77
2019-04-23T22:54:51.353Z,100324.52
2019-04-23T22:57:04.229Z,100320.33
2019-04-23T22:59:57.472Z,100320.89
2019-04-23T23:02:54.658Z,100293.02
2019-04-23T23:07:56.247Z,100301.63
2019-04-23T23:10:23.075Z,100311.20
2019-04-23T23:13:01.977Z,100323.09
2019-04-23T23:15:26.499Z,100322.56
2019-04-23T23:18:02.631Z,100314.73
2019-04-23T23:20:29.286Z,100307.64
2019-04-23T23:23:06.374Z,100307.64
2019-04-23T23:28:07.956Z,100311.89
2019-04-23T23:30:38.719Z,100314.19
2019-04-23T23:33:13.309Z,100301.08
2019-04-23T23:35:54.060Z,100298.95
2019-04-23T23:38:33.384Z,100294.09
2019-04-23T23:41:07.733Z,100297.45
2019-04-23T23:49:09.784Z,100288.28
2019-04-23T23:51:21.595Z,100289.53
2019-04-23T23:53:56.865Z,100283.03
2019-04-23T23:56:29.839Z,100286.97
2019-04-23T23:59:03.902Z,100292.19
